Time;durP1;ratioP1;P1;durP2;ratioP2;P2;SDS_P1;SDS_P2;PMS_P1;PMS_P2;Temp;Humidity;BMP_temperature;BMP_pressure;BME280_temperature;BME280_humidity;BME280_pressure;Samples;Min_cycle;Max_cycle;Signal;HPM_P1;HPM_P2
2023/09/18 00:00:53;;;;;;;6.63;5.47;;;;;;;20.76;63.53;95784.84;4911693;29;20427;-68
2023/09/18 00:03:21;;;;;;;11.07;5.70;;;;;;;20.72;63.74;95775.47;4911829;29;20180;-68
2023/09/18 00:05:50;;;;;;;11.53;6.00;;;;;;;20.65;63.79;95777.03;4911740;29;20412;-67
2023/09/18 00:08:16;;;;;;;19.57;5.80;;;;;;;20.73;63.71;95777.13;4911455;29;20422;-68
2023/09/18 00:10:46;;;;;;;5.83;5.30;;;;;;;20.51;64.27;95779.13;4912013;29;21094;-69
2023/09/18 00:13:11;;;;;;;8.40;4.70;;;;;;;20.72;63.49;95783.47;4911613;29;20427;-68
2023/09/18 00:15:38;;;;;;;7.70;5.50;;;;;;;20.72;62.97;95780.81;4911671;29;20416;-68
2023/09/18 00:18:03;;;;;;;7.17;4.70;;;;;;;20.75;62.41;95783.16;4911352;29;20270;-68
2023/09/18 00:20:29;;;;;;;7.83;5.50;;;;;;;20.79;62.36;95781.03;4911274;29;20627;-68
2023/09/18 00:22:55;;;;;;;7.80;5.83;;;;;;;20.74;62.45;95784.16;4911662;29;20175;-68
2023/09/18 00:25:21;;;;;;;6.20;5.30;;;;;;;20.73;62.53;95782.47;4911444;29;20183;-67
2023/09/18 00:27:46;;;;;;;5.73;4.27;;;;;;;20.67;62.43;95775.03;4911143;29;20936;-68
2023/09/18 00:30:12;;;;;;;9.07;5.07;;;;;;;20.76;62.05;95779.50;4911228;29;20506;-67
2023/09/18 00:32:37;;;;;;;7.40;4.87;;;;;;;20.60;62.50;95776.59;4911314;29;20179;-67
2023/09/18 00:35:03;;;;;;;7.67;5.80;;;;;;;20.53;62.86;95765.66;4910986;29;20191;-68
2023/09/18 00:37:28;;;;;;;8.70;5.63;;;;;;;20.54;62.74;95772.66;4910858;29;20187;-68
2023/09/18 00:39:54;;;;;;;8.77;5.63;;;;;;;20.54;62.95;95769.16;4910375;29;20219;-68
2023/09/18 00:42:21;;;;;;;7.60;5.43;;;;;;;20.57;62.61;95764.41;4911163;29;20223;-69
2023/09/18 00:44:46;;;;;;;6.37;5.53;;;;;;;20.51;63.08;95767.63;4911109;29;20271;-68
2023/09/18 00:47:14;;;;;;;10.20;4.97;;;;;;;20.48;62.92;95762.56;4911480;29;20901;-69
2023/09/18 00:49:41;;;;;;;6.30;4.93;;;;;;;20.40;63.21;95757.13;4911047;29;20218;-68
2023/09/18 00:52:08;;;;;;;9.30;5.67;;;;;;;20.40;63.26;95755.31;4911116;29;20832;-69
2023/09/18 00:54:35;;;;;;;5.73;5.20;;;;;;;20.28;63.79;95753.78;4894118;29;20514;-68
2023/09/18 00:57:00;;;;;;;6.07;5.30;;;;;;;20.14;64.32;95738.25;4911397;29;20419;-67
2023/09/18 00:59:26;;;;;;;6.40;4.70;;;;;;;20.15;64.14;95735.44;4910913;29;20432;-69
2023/09/18 01:01:52;;;;;;;6.90;5.10;;;;;;;20.12;64.21;95740.22;4911304;29;20171;-68
2023/09/18 01:04:18;;;;;;;7.83;5.73;;;;;;;20.11;64.34;95738.53;4911474;29;20263;-68
2023/09/18 01:06:43;;;;;;;7.60;5.10;;;;;;;20.04;64.56;95739.09;4911522;29;20843;-68
2023/09/18 01:09:17;;;;;;;6.80;5.27;;;;;;;20.07;64.46;95737.97;4911240;29;20835;-68
2023/09/18 01:11:53;;;;;;;7.80;5.60;;;;;;;20.09;64.33;95742.16;4925713;29;20183;-69
2023/09/18 01:14:21;;;;;;;11.10;5.90;;;;;;;20.13;64.50;95752.56;4924082;29;20434;-68
2023/09/18 01:17:03;;;;;;;6.60;4.87;;;;;;;20.06;64.68;95763.78;4910560;29;20431;-69
2023/09/18 01:19:38;;;;;;;7.00;5.17;;;;;;;20.13;64.13;95752.56;4910112;29;20817;-69
2023/09/18 01:22:05;;;;;;;5.43;4.93;;;;;;;19.74;65.57;95753.38;4910201;29;20877;-68
2023/09/18 01:24:35;;;;;;;6.37;5.27;;;;;;;20.01;64.72;95754.53;4910266;29;20798;-69
2023/09/18 01:27:01;;;;;;;6.57;5.23;;;;;;;20.02;64.76;95757.03;4910722;29;20760;-69
2023/09/18 01:29:26;;;;;;;6.67;4.53;;;;;;;20.08;64.34;95748.50;4910208;29;20467;-68
2023/09/18 01:31:52;;;;;;;5.80;5.20;;;;;;;20.17;63.98;95744.13;4910499;29;20237;-68
2023/09/18 01:34:33;;;;;;;6.13;4.83;;;;;;;20.20;63.96;95745.69;4910013;29;20206;-68
2023/09/18 01:37:00;;;;;;;8.83;4.43;;;;;;;20.14;64.19;95741.75;4892919;29;20724;-68
2023/09/18 01:39:30;;;;;;;8.17;5.40;;;;;;;20.11;64.18;95734.03;4909959;29;20444;-69
2023/09/18 01:41:58;;;;;;;6.83;5.17;;;;;;;20.16;64.16;95728.28;4910321;29;20419;-68
2023/09/18 01:44:23;;;;;;;6.03;5.17;;;;;;;20.11;64.45;95728.72;4909360;29;20498;-69
2023/09/18 01:46:51;;;;;;;10.07;5.40;;;;;;;20.08;64.37;95719.19;4910189;29;20781;-68
2023/09/18 01:49:16;;;;;;;7.73;5.40;;;;;;;20.13;64.15;95725.94;4910442;29;20199;-68
2023/09/18 01:51:42;;;;;;;5.63;5.03;;;;;;;20.04;64.59;95719.63;4910256;29;20452;-68
2023/09/18 01:54:07;;;;;;;6.63;5.73;;;;;;;19.96;64.87;95716.81;4910125;29;20210;-69
2023/09/18 01:56:32;;;;;;;9.60;5.57;;;;;;;20.00;65.13;95711.06;4910154;29;20171;-68
2023/09/18 01:58:58;;;;;;;8.83;5.50;;;;;;;19.86;65.63;95714.16;4909587;29;20282;-67
2023/09/18 02:01:23;;;;;;;7.00;5.80;;;;;;;19.88;65.77;95697.06;4909708;29;20171;-70
2023/09/18 02:03:48;;;;;;;13.40;5.97;;;;;;;19.86;65.71;95693.69;4909966;29;20258;-69
2023/09/18 02:06:14;;;;;;;6.97;5.80;;;;;;;19.57;67.06;95688.34;4909764;29;20184;-68
2023/09/18 02:08:39;;;;;;;6.77;6.17;;;;;;;19.47;67.84;95690.19;4909527;29;20641;-68
2023/09/18 02:11:04;;;;;;;7.27;5.67;;;;;;;19.23;69.01;95686.09;4909818;29;20207;-67
2023/09/18 02:13:30;;;;;;;7.50;6.80;;;;;;;19.20;69.33;95690.84;4910030;29;20266;-68
2023/09/18 02:15:56;;;;;;;7.40;6.33;;;;;;;19.46;68.41;95691.16;4911596;29;20182;-69
2023/09/18 02:18:21;;;;;;;11.13;6.73;;;;;;;19.37;68.85;95686.66;4909588;29;20180;-68
2023/09/18 02:20:48;;;;;;;13.50;7.07;;;;;;;19.27;69.61;95670.69;4909640;29;20204;-69
2023/09/18 02:23:15;;;;;;;8.80;7.20;;;;;;;19.43;69.05;95680.78;4892831;29;20605;-69
2023/09/18 02:25:40;;;;;;;11.73;9.50;;;;;;;19.17;70.08;95667.19;4909853;29;20427;-69
2023/09/18 02:28:06;;;;;;;14.40;9.40;;;;;;;18.70;71.52;95654.47;4909515;29;20419;-68
2023/09/18 02:30:32;;;;;;;10.13;8.20;;;;;;;18.98;70.77;95666.19;4909691;29;20274;-68
2023/09/18 02:32:58;;;;;;;15.87;10.27;;;;;;;19.23;69.81;95658.66;4909614;29;20507;-68
2023/09/18 02:35:23;;;;;;;9.33;7.37;;;;;;;19.41;69.37;95661.47;4909654;29;20992;-68
2023/09/18 02:37:48;;;;;;;12.10;7.63;;;;;;;19.23;70.27;95659.50;4909428;29;20669;-69
2023/09/18 02:40:14;;;;;;;10.27;8.10;;;;;;;19.44;69.44;95667.34;4909908;29;20198;-68
2023/09/18 02:42:39;;;;;;;10.13;8.00;;;;;;;19.55;68.84;95652.22;4914315;29;20272;-69
2023/09/18 02:45:05;;;;;;;7.83;7.03;;;;;;;19.42;69.25;95648.03;4924221;29;20184;-69
2023/09/18 02:47:30;;;;;;;10.20;7.87;;;;;;;19.53;68.95;95649.69;4920510;29;21041;-70
2023/09/18 02:49:56;;;;;;;8.30;7.30;;;;;;;19.12;70.95;95642.84;4921936;29;20211;-68
2023/09/18 02:52:21;;;;;;;10.43;7.20;;;;;;;19.44;69.45;95647.88;4919378;29;20222;-67
2023/09/18 02:54:46;;;;;;;9.77;8.77;;;;;;;19.46;69.62;95643.25;4915848;29;20183;-68
2023/09/18 02:57:12;;;;;;;9.47;7.80;;;;;;;19.18;70.52;95644.91;4910233;29;20900;-67
2023/09/18 02:59:38;;;;;;;8.80;8.00;;;;;;;19.33;70.14;95656.00;4909290;29;20561;-67
2023/09/18 03:02:03;;;;;;;12.07;7.53;;;;;;;19.40;69.64;95644.66;4909821;29;20424;-68
2023/09/18 03:04:31;;;;;;;9.63;8.63;;;;;;;19.16;70.79;95642.41;4912954;29;20195;-68
2023/09/18 03:06:56;;;;;;;12.97;10.07;;;;;;;18.88;71.93;95644.06;4913118;29;20171;-66
2023/09/18 03:09:22;;;;;;;14.40;9.33;;;;;;;19.31;70.43;95644.66;4912926;29;21023;-69
2023/09/18 03:11:47;;;;;;;9.47;8.17;;;;;;;19.49;69.90;95650.97;4913366;29;20187;-69
2023/09/18 03:14:13;;;;;;;12.73;8.60;;;;;;;19.54;69.28;95646.06;4913064;29;20186;-68
2023/09/18 03:16:38;;;;;;;8.73;7.87;;;;;;;19.45;69.53;95646.91;4912499;29;20223;-68
2023/09/18 03:19:03;;;;;;;8.77;7.77;;;;;;;19.38;70.06;95651.09;4912410;29;20255;-70
2023/09/18 03:21:30;;;;;;;10.87;8.70;;;;;;;19.29;70.45;95646.63;4913007;29;20191;-67
2023/09/18 03:23:57;;;;;;;11.70;8.60;;;;;;;19.25;70.73;95646.91;4912764;29;20222;-67
2023/09/18 03:26:23;;;;;;;9.27;8.43;;;;;;;19.25;70.54;95630.94;4912801;29;20917;-67
2023/09/18 03:28:48;;;;;;;14.63;8.60;;;;;;;19.29;70.36;95618.19;4912560;29;20423;-67
2023/09/18 03:31:13;;;;;;;8.80;7.80;;;;;;;19.29;70.36;95618.19;4912782;29;20627;-68
2023/09/18 03:33:39;;;;;;;8.40;7.60;;;;;;;19.19;70.64;95610.22;4912975;29;20179;-67
2023/09/18 03:36:05;;;;;;;31.17;9.40;;;;;;;19.22;69.90;95633.03;4913036;29;21280;-67
2023/09/18 03:38:30;;;;;;;9.73;8.17;;;;;;;19.15;70.16;95631.91;4912711;29;20333;-68
2023/09/18 03:40:55;;;;;;;11.20;7.20;;;;;;;19.21;69.94;95634.84;4912693;29;20657;-68
2023/09/18 03:43:21;;;;;;;9.27;6.33;;;;;;;19.27;69.65;95619.31;4912727;29;20207;-67
2023/09/18 03:45:47;;;;;;;10.73;8.30;;;;;;;19.29;69.60;95620.84;4912716;29;20394;-68
2023/09/18 03:48:12;;;;;;;7.03;6.33;;;;;;;19.20;69.57;95622.53;4912437;29;20187;-69
2023/09/18 03:50:38;;;;;;;11.57;7.00;;;;;;;19.13;69.98;95626.72;4913552;29;20688;-68
2023/09/18 03:53:04;;;;;;;10.23;6.70;;;;;;;19.15;69.92;95631.91;4914553;29;20557;-68
2023/09/18 03:55:29;;;;;;;8.60;7.80;;;;;;;19.15;69.97;95638.06;4919761;29;20419;-68
2023/09/18 03:57:55;;;;;;;19.13;8.53;;;;;;;19.24;69.49;95645.22;4929848;29;20184;-68
2023/09/18 04:00:21;;;;;;;9.33;8.33;;;;;;;19.21;69.85;95648.16;4930293;29;20271;-69
2023/09/18 04:02:46;;;;;;;11.93;8.70;;;;;;;18.99;70.70;95641.28;4938012;29;20203;-71
2023/09/18 04:05:12;;;;;;;10.07;8.10;;;;;;;19.14;70.48;95641.72;4928914;29;20481;-68
2023/09/18 04:07:38;;;;;;;9.13;8.33;;;;;;;19.09;70.75;95641.28;4912821;29;20469;-68
2023/09/18 04:10:03;;;;;;;11.13;9.00;;;;;;;19.30;69.93;95643.84;4911932;29;20689;-69
2023/09/18 04:12:29;;;;;;;15.47;8.67;;;;;;;19.38;69.75;95648.44;4911986;29;20187;-68
2023/09/18 04:14:54;;;;;;;11.77;10.20;;;;;;;19.29;70.05;95652.78;4910843;29;20191;-69
2023/09/18 04:17:21;;;;;;;19.67;9.83;;;;;;;19.25;70.52;95657.56;4911684;29;20179;-69
2023/09/18 04:19:46;;;;;;;33.47;10.30;;;;;;;19.10;70.98;95660.75;4911467;29;20215;-68
2023/09/18 04:22:12;;;;;;;22.23;12.10;;;;;;;19.19;70.77;95670.56;4911988;29;20439;-67
2023/09/18 04:24:37;;;;;;;11.37;8.73;;;;;;;19.39;69.48;95669.59;4911878;29;20614;-68
2023/09/18 04:27:03;;;;;;;9.03;7.30;;;;;;;19.44;68.46;95671.81;4912567;29;20184;-68
2023/09/18 04:29:28;;;;;;;13.33;8.27;;;;;;;19.40;68.45;95681.09;4912232;29;20247;-68
2023/09/18 04:31:54;;;;;;;8.13;7.20;;;;;;;19.40;68.39;95707.69;4912289;29;20657;-69
2023/09/18 04:34:20;;;;;;;9.53;7.07;;;;;;;19.33;68.48;95706.56;4908901;29;20198;-68
2023/09/18 04:36:46;;;;;;;15.13;9.20;;;;;;;19.34;68.22;95708.22;4906453;29;20223;-68
2023/09/18 04:39:12;;;;;;;19.30;8.83;;;;;;;19.40;67.93;95699.72;4911555;29;20444;-68
2023/09/18 04:41:37;;;;;;;20.30;8.23;;;;;;;19.22;68.70;95662.28;4911027;29;20419;-67
2023/09/18 04:44:04;;;;;;;13.40;8.03;;;;;;;18.98;69.77;95654.69;4911411;29;20244;-69
2023/09/18 04:46:30;;;;;;;32.70;12.87;;;;;;;18.81;70.70;95653.56;4909203;29;20640;-68
2023/09/18 04:48:55;;;;;;;16.67;9.40;;;;;;;18.77;71.06;95658.28;4911681;29;20428;-69
2023/09/18 04:51:20;;;;;;;13.33;8.90;;;;;;;18.91;70.52;95659.72;4912035;29;20191;-69
2023/09/18 04:53:46;;;;;;;14.53;8.40;;;;;;;18.95;70.53;95655.81;4894396;29;20183;-69
2023/09/18 04:56:11;;;;;;;36.50;11.13;;;;;;;19.25;69.07;95651.38;4912085;29;20175;-67
2023/09/18 04:58:38;;;;;;;20.50;7.83;;;;;;;19.30;68.58;95646.50;4911395;29;20189;-67
2023/09/18 05:01:05;;;;;;;17.77;8.20;;;;;;;19.34;68.44;95647.03;4911509;29;20275;-70
2023/09/18 05:03:32;;;;;;;7.00;6.30;;;;;;;19.37;67.97;95655.59;4911294;29;20412;-69
2023/09/18 05:05:58;;;;;;;17.90;7.40;;;;;;;19.40;67.74;95663.28;4911855;29;20929;-69
2023/09/18 05:08:23;;;;;;;11.73;8.00;;;;;;;19.36;68.35;95664.53;4911928;29;20426;-68
2023/09/18 05:10:49;;;;;;;21.10;8.27;;;;;;;19.44;67.98;95646.06;4911947;29;21093;-68
2023/09/18 05:13:14;;;;;;;31.50;10.30;;;;;;;19.36;68.12;95651.25;4911244;29;20187;-70
2023/09/18 05:15:39;;;;;;;32.00;8.37;;;;;;;19.40;68.23;95670.44;4910896;29;20242;-69
2023/09/18 05:18:05;;;;;;;11.70;8.13;;;;;;;19.30;68.40;95658.94;4911242;29;20184;-69
2023/09/18 05:20:31;;;;;;;18.50;8.70;;;;;;;19.39;68.50;95653.63;4910693;29;20251;-71
2023/09/18 05:22:58;;;;;;;11.93;7.90;;;;;;;19.35;68.55;95643.41;4909229;29;20282;-72
2023/09/18 05:25:25;;;;;;;11.07;9.17;;;;;;;19.38;68.65;95641.31;4908321;29;20449;-71
2023/09/18 05:27:56;;;;;;;16.70;9.30;;;;;;;19.35;68.95;95640.75;4909431;29;20514;-71
2023/09/18 05:30:27;;;;;;;17.93;8.47;;;;;;;19.43;68.67;95632.91;4909862;29;20595;-70
2023/09/18 05:32:56;;;;;;;29.03;10.90;;;;;;;19.59;68.29;95621.69;4910328;29;20767;-71
2023/09/18 05:35:23;;;;;;;21.30;10.50;;;;;;;19.84;67.50;95628.25;4905930;29;20531;-68
2023/09/18 05:37:50;;;;;;;13.23;8.20;;;;;;;19.76;67.35;95654.75;4909583;29;20419;-69
2023/09/18 05:40:17;;;;;;;14.67;9.27;;;;;;;19.70;67.56;95658.84;4910430;29;20439;-67
2023/09/18 05:42:43;;;;;;;8.83;7.57;;;;;;;19.63;67.87;95661.19;4909752;29;20732;-69
2023/09/18 05:45:12;;;;;;;18.07;8.47;;;;;;;19.51;68.34;95666.78;4909426;29;21213;-70
2023/09/18 05:47:38;;;;;;;12.00;8.93;;;;;;;19.48;68.30;95651.94;4909286;29;20522;-68
2023/09/18 05:50:16;;;;;;;35.37;9.47;;;;;;;19.55;68.36;95654.88;4910325;29;20553;-69
2023/09/18 05:52:43;;;;;;;15.03;7.97;;;;;;;19.67;67.80;95665.22;4908636;29;20171;-69
2023/09/18 05:55:09;;;;;;;23.30;8.93;;;;;;;19.91;67.04;95673.78;4906424;29;20435;-68
2023/09/18 05:57:35;;;;;;;17.23;10.53;;;;;;;19.95;66.91;95694.66;4906204;29;20447;-70
2023/09/18 06:00:00;;;;;;;23.80;9.80;;;;;;;20.06;66.39;95699.00;4909064;29;20436;-69
2023/09/18 06:02:26;;;;;;;26.53;10.53;;;;;;;19.87;67.08;95707.88;4907060;29;21225;-68
2023/09/18 06:05:00;;;;;;;18.53;8.87;;;;;;;20.55;65.16;95704.19;4900066;29;20284;-70
2023/09/18 06:07:26;;;;;;;12.13;8.20;;;;;;;21.28;62.12;95702.47;4899256;29;20194;-68
2023/09/18 06:09:51;;;;;;;8.80;7.20;;;;;;;21.15;62.46;95697.47;4902907;29;20478;-69
2023/09/18 06:12:17;;;;;;;16.83;8.70;;;;;;;20.74;63.75;95709.50;4904379;29;20432;-70
2023/09/18 06:14:42;;;;;;;14.30;8.63;;;;;;;21.43;62.12;95688.66;4908440;29;20186;-69
2023/09/18 06:17:09;;;;;;;19.90;8.43;;;;;;;21.93;60.10;95680.06;4908092;29;20317;-70
2023/09/18 06:19:35;;;;;;;16.33;8.50;;;;;;;22.33;58.62;95676.03;4908091;29;20203;-69
2023/09/18 06:22:00;;;;;;;32.43;9.10;;;;;;;21.83;60.01;95681.97;4891303;29;20450;-70
2023/09/18 06:24:26;;;;;;;17.90;8.73;;;;;;;21.71;61.13;95695.59;4908055;29;20591;-68
2023/09/18 06:26:52;;;;;;;15.47;9.00;;;;;;;21.91;62.36;95692.72;4904673;29;20188;-67
2023/09/18 06:29:18;;;;;;;27.70;7.90;;;;;;;21.83;62.18;95689.97;4900405;29;20689;-68
2023/09/18 06:31:45;;;;;;;12.37;8.47;;;;;;;21.47;61.48;95695.34;4903536;29;20531;-67
2023/09/18 06:34:10;;;;;;;15.10;9.20;;;;;;;21.51;61.69;95702.06;4908656;29;20787;-69
2023/09/18 06:36:36;;;;;;;12.87;7.63;;;;;;;21.31;62.66;95699.50;4908465;29;20549;-67
2023/09/18 06:39:02;;;;;;;12.00;8.17;;;;;;;21.00;63.47;95703.47;4910530;29;20199;-69
2023/09/18 06:41:27;;;;;;;11.83;8.03;;;;;;;20.98;64.26;95711.63;4913931;29;20797;-68
2023/09/18 06:43:53;;;;;;;15.73;10.30;;;;;;;21.15;63.61;95707.31;4914783;29;20507;-68
2023/09/18 06:46:18;;;;;;;13.00;8.20;;;;;;;21.27;62.91;95716.78;4910714;29;20278;-65
2023/09/18 06:48:49;;;;;;;13.27;7.50;;;;;;;21.42;63.07;95703.78;4914479;29;20184;-66
2023/09/18 06:51:14;;;;;;;12.80;8.00;;;;;;;21.62;61.72;95701.84;4914024;29;20290;-69
2023/09/18 06:53:40;;;;;;;15.63;8.33;;;;;;;22.11;60.58;95710.28;4915678;29;20492;-68
2023/09/18 06:56:05;;;;;;;14.60;7.00;;;;;;;22.88;58.37;95702.38;4914612;29;20187;-67
2023/09/18 06:58:31;;;;;;;18.77;8.40;;;;;;;22.66;58.64;95694.94;4912931;29;20191;-67
2023/09/18 07:00:57;;;;;;;10.77;8.27;;;;;;;22.08;59.96;95707.06;4897653;29;20278;-65
2023/09/18 07:03:23;;;;;;;12.47;8.60;;;;;;;21.82;60.79;95704.34;4914596;29;20315;-69
2023/09/18 07:05:48;;;;;;;14.93;8.67;;;;;;;21.95;60.74;95704.78;4914615;29;20859;-67
2023/09/18 07:08:15;;;;;;;13.27;8.20;;;;;;;21.83;60.95;95714.03;4914771;29;20267;-67
2023/09/18 07:10:41;;;;;;;16.63;8.57;;;;;;;21.65;61.45;95711.38;4915602;29;20234;-67
2023/09/18 07:13:07;;;;;;;18.23;9.30;;;;;;;21.74;61.40;95713.13;4914795;29;20424;-67
2023/09/18 07:15:32;;;;;;;18.03;8.40;;;;;;;21.76;61.27;95689.78;4916521;29;20187;-66
2023/09/18 07:17:57;;;;;;;21.97;10.30;;;;;;;21.87;61.22;95694.03;4913429;29;20203;-67
2023/09/18 07:20:23;;;;;;;15.03;9.20;;;;;;;21.80;61.30;95695.63;4905147;29;20950;-67
2023/09/18 07:22:50;;;;;;;27.17;9.43;;;;;;;21.92;60.92;95694.41;4896962;29;20212;-68
2023/09/18 07:25:16;;;;;;;18.90;10.17;;;;;;;22.06;60.17;95690.34;4910525;29;20435;-66
2023/09/18 07:27:45;;;;;;;17.07;9.70;;;;;;;22.07;60.28;95684.84;4903708;29;20420;-68
2023/09/18 07:30:11;;;;;;;18.33;9.13;;;;;;;21.94;60.67;95687.91;4914359;29;20464;-67
2023/09/18 07:32:39;;;;;;;9.77;8.77;;;;;;;22.00;60.51;95691.81;4921817;29;20427;-67
2023/09/18 07:35:06;;;;;;;35.03;10.63;;;;;;;21.89;61.13;95700.88;4920993;29;20416;-67
2023/09/18 07:37:32;;;;;;;23.13;9.77;;;;;;;21.75;61.42;95715.63;4920290;29;20442;-68
2023/09/18 07:39:57;;;;;;;31.17;11.60;;;;;;;21.84;61.20;95721.06;4911819;29;20466;-66
2023/09/18 07:42:26;;;;;;;29.03;9.80;;;;;;;21.77;61.81;95737.69;4903026;29;20176;-67
2023/09/18 07:44:51;;;;;;;66.20;12.70;;;;;;;21.70;62.04;95744.63;4910535;29;20179;-65
2023/09/18 07:47:16;;;;;;;41.30;12.13;;;;;;;21.63;62.33;95754.22;4912394;29;20443;-68
2023/09/18 07:49:42;;;;;;;27.87;8.70;;;;;;;21.55;62.82;95752.31;4912175;29;20216;-66
2023/09/18 07:52:07;;;;;;;15.23;9.00;;;;;;;21.52;62.99;95754.44;4914796;29;20701;-67
2023/09/18 07:54:33;;;;;;;9.53;8.53;;;;;;;21.56;62.63;95745.16;4907424;29;20223;-67
2023/09/18 07:57:01;;;;;;;16.23;10.00;;;;;;;21.63;62.42;95742.72;4914411;29;20184;-67
2023/09/18 07:59:26;;;;;;;16.20;7.97;;;;;;;21.45;62.57;95756.03;4897120;29;20195;-67
2023/09/18 08:01:52;;;;;;;17.83;8.87;;;;;;;21.36;63.40;95777.28;4913980;29;20466;-69
2023/09/18 08:04:17;;;;;;;11.70;7.43;;;;;;;21.38;63.61;95786.97;4913725;29;20223;-67
2023/09/18 08:06:43;;;;;;;11.43;8.07;;;;;;;21.29;63.75;95789.53;4913894;29;20175;-67
2023/09/18 08:09:10;;;;;;;8.53;7.63;;;;;;;21.11;64.67;95802.81;4912408;29;20203;-67
2023/09/18 08:11:36;;;;;;;9.53;7.43;;;;;;;20.88;65.46;95813.03;4913588;29;20250;-67
2023/09/18 08:14:02;;;;;;;12.50;7.93;;;;;;;20.86;65.57;95812.34;4913490;29;20411;-69
2023/09/18 08:16:29;;;;;;;10.67;7.17;;;;;;;20.85;65.62;95809.81;4913416;29;20427;-67
2023/09/18 08:18:56;;;;;;;13.90;7.80;;;;;;;20.76;65.97;95821.34;4914034;29;20447;-69
2023/09/18 08:21:23;;;;;;;67.70;14.97;;;;;;;20.91;65.61;95807.41;4914407;29;20451;-69
2023/09/18 08:23:48;;;;;;;51.80;11.53;;;;;;;20.88;65.74;95810.38;4913616;29;20534;-69
2023/09/18 08:26:13;;;;;;;17.73;8.80;;;;;;;20.86;65.91;95806.16;4913937;29;20554;-69
2023/09/18 08:28:43;;;;;;;22.10;8.20;;;;;;;20.98;65.67;95805.00;4912072;29;21039;-69
2023/09/18 08:31:09;;;;;;;18.10;9.07;;;;;;;21.09;65.50;95798.63;4915075;29;20218;-69
2023/09/18 08:33:36;;;;;;;17.30;7.90;;;;;;;21.08;65.59;95808.44;4915597;29;20420;-69
2023/09/18 08:36:01;;;;;;;17.70;9.30;;;;;;;21.13;65.68;95816.03;4915165;29;20190;-67
2023/09/18 08:38:27;;;;;;;19.70;9.83;;;;;;;21.01;65.97;95812.69;4913409;29;20431;-68
2023/09/18 08:40:54;;;;;;;13.60;6.80;;;;;;;21.08;65.99;95813.78;4915563;29;20796;-70
2023/09/18 08:43:21;;;;;;;9.67;7.30;;;;;;;21.19;65.77;95812.78;4914817;29;20188;-69
2023/09/18 08:45:55;;;;;;;13.10;7.23;;;;;;;21.30;65.15;95814.41;4915161;29;20412;-69
2023/09/18 08:48:21;;;;;;;16.30;6.53;;;;;;;21.46;64.75;95809.28;4913059;29;20416;-70
2023/09/18 08:50:48;;;;;;;12.33;8.37;;;;;;;21.50;64.32;95807.19;4914074;29;21015;-69
2023/09/18 08:53:14;;;;;;;11.20;7.40;;;;;;;21.58;64.20;95807.25;4913531;29;20740;-68
2023/09/18 08:55:40;;;;;;;10.10;7.23;;;;;;;21.63;63.79;95812.16;4913571;29;21206;-69
2023/09/18 08:58:07;;;;;;;29.10;6.93;;;;;;;21.66;63.64;95810.03;4911857;29;20419;-66
2023/09/18 09:00:35;;;;;;;14.03;6.10;;;;;;;21.89;62.95;95809.59;4914024;29;20282;-68
2023/09/18 09:03:01;;;;;;;12.47;5.77;;;;;;;21.75;63.27;95809.09;4913610;29;20420;-69
2023/09/18 09:05:26;;;;;;;11.77;5.63;;;;;;;21.83;62.89;95810.19;4914091;29;20430;-69
2023/09/18 09:07:52;;;;;;;17.20;6.57;;;;;;;21.90;62.19;95808.59;4913019;29;20186;-69
2023/09/18 09:10:17;;;;;;;11.53;4.77;;;;;;;21.84;62.05;95804.69;4912702;29;20593;-69
2023/09/18 09:12:51;;;;;;;21.17;4.90;;;;;;;21.79;62.19;95788.28;4911009;29;20194;-69
2023/09/18 09:15:16;;;;;;;15.53;5.40;;;;;;;21.83;62.08;95788.81;4911199;29;20246;-68
2023/09/18 09:17:44;;;;;;;16.80;5.30;;;;;;;21.85;61.66;95778.81;4910390;29;20423;-69
2023/09/18 09:20:11;;;;;;;12.20;4.60;;;;;;;21.86;61.95;95789.34;4910218;29;20245;-68
2023/09/18 09:22:37;;;;;;;16.70;5.20;;;;;;;21.74;62.27;95794.09;4910351;29;20416;-69
2023/09/18 09:25:04;;;;;;;11.57;5.27;;;;;;;21.76;62.31;95802.78;4911196;29;20424;-70
2023/09/18 09:27:41;;;;;;;14.30;6.57;;;;;;;21.76;62.44;95800.13;4909299;29;20481;-70
2023/09/18 09:30:07;;;;;;;12.40;5.30;;;;;;;21.88;61.92;95803.41;4910497;29;20526;-70
2023/09/18 09:32:33;;;;;;;12.40;5.60;;;;;;;22.00;61.68;95809.38;4910950;29;20416;-69
2023/09/18 09:35:00;;;;;;;13.07;5.40;;;;;;;21.91;61.58;95796.91;4911057;29;20283;-69
2023/09/18 09:37:31;;;;;;;10.67;4.83;;;;;;;21.83;62.00;95803.03;4909683;29;20414;-69
2023/09/18 09:39:59;;;;;;;10.63;5.27;;;;;;;21.81;62.28;95806.84;4910005;29;20436;-69
2023/09/18 09:42:25;;;;;;;13.03;5.80;;;;;;;21.72;62.76;95804.06;4909285;29;20996;-68
2023/09/18 09:45:05;;;;;;;20.77;5.43;;;;;;;21.83;62.84;95804.84;4910997;29;20559;-68
2023/09/18 09:47:35;;;;;;;13.90;7.03;;;;;;;21.77;63.00;95808.97;4910083;29;20175;-69
2023/09/18 09:50:15;;;;;;;16.63;6.50;;;;;;;21.78;63.05;95808.00;4910610;29;20463;-69
2023/09/18 09:52:44;;;;;;;12.13;5.10;;;;;;;21.72;63.40;95804.06;4910957;29;20454;-69
2023/09/18 09:55:28;;;;;;;10.10;5.00;;;;;;;21.63;63.77;95812.97;4911162;29;20929;-68
2023/09/18 09:58:02;;;;;;;8.00;4.80;;;;;;;21.64;63.90;95814.69;4908967;29;20418;-69
2023/09/18 10:00:43;;;;;;;17.60;4.70;;;;;;;21.52;64.21;95824.72;4909838;29;20495;-68
2023/09/18 10:03:11;;;;;;;13.63;5.10;;;;;;;21.53;64.35;95849.59;4910111;29;20782;-69
2023/09/18 10:05:39;;;;;;;6.33;3.87;;;;;;;21.48;64.56;95863.38;4910883;29;20423;-69
2023/09/18 10:08:11;;;;;;;11.50;4.20;;;;;;;21.51;64.50;95867.56;4909333;29;20429;-70
2023/09/18 10:10:40;;;;;;;5.50;3.63;;;;;;;21.45;64.43;95882.38;4909899;29;20594;-69
2023/09/18 10:13:24;;;;;;;10.93;4.03;;;;;;;21.50;64.72;95892.59;4911762;29;21481;-69
2023/09/18 10:15:51;;;;;;;12.80;4.20;;;;;;;21.34;65.36;95895.84;4914623;29;20474;-69
2023/09/18 10:18:52;;;;;;;10.47;4.00;;;;;;;21.39;65.61;95884.75;4913263;29;20411;-70
2023/09/18 10:21:35;;;;;;;9.23;4.07;;;;;;;21.30;65.74;95897.97;4914076;29;20423;-70
2023/09/18 10:24:04;;;;;;;9.80;3.27;;;;;;;21.30;65.20;95894.47;4914117;29;20411;-69
2023/09/18 10:26:38;;;;;;;19.10;5.63;;;;;;;21.27;65.16;95902.75;4915416;29;20849;-68
2023/09/18 10:29:08;;;;;;;17.50;4.50;;;;;;;21.11;65.14;95908.69;4913119;29;20598;-70
2023/09/18 10:31:35;;;;;;;5.87;3.30;;;;;;;21.10;65.33;95907.88;4914159;29;20427;-69
2023/09/18 10:34:02;;;;;;;4.27;3.07;;;;;;;20.99;66.33;95925.88;4914021;29;20518;-68
2023/09/18 10:36:30;;;;;;;7.50;3.50;;;;;;;20.76;67.57;95925.31;4914841;29;20442;-69
2023/09/18 10:38:58;;;;;;;10.27;3.00;;;;;;;20.79;67.36;95928.56;4913118;29;20487;-71
2023/09/18 10:41:25;;;;;;;11.13;3.63;;;;;;;20.60;68.90;95928.56;4913703;29;20408;-69
2023/09/18 10:43:53;;;;;;;9.50;2.90;;;;;;;20.61;68.85;95922.25;4913625;29;20784;-69
2023/09/18 10:46:19;;;;;;;8.40;2.70;;;;;;;20.54;68.47;95937.09;4912807;29;20833;-69
2023/09/18 10:48:46;;;;;;;8.17;3.37;;;;;;;20.53;69.68;95930.94;4912888;29;20427;-68
2023/09/18 10:51:13;;;;;;;9.70;4.90;;;;;;;20.34;69.86;95941.56;4913588;29;20550;-70
2023/09/18 10:53:39;;;;;;;11.57;3.60;;;;;;;20.29;70.08;95941.97;4912796;29;20415;-69
2023/09/18 10:56:05;;;;;;;4.97;3.50;;;;;;;20.27;69.88;95927.97;4913477;29;20415;-68
2023/09/18 10:58:30;;;;;;;20.33;3.80;;;;;;;20.30;70.08;95935.69;4898264;29;20435;-70
2023/09/18 11:00:59;;;;;;;5.33;3.03;;;;;;;20.27;70.44;95936.81;4916976;29;20226;-71
2023/09/18 11:03:24;;;;;;;9.03;3.00;;;;;;;20.22;70.95;95939.03;4913981;29;20235;-70
2023/09/18 11:06:06;;;;;;;12.67;4.50;;;;;;;20.22;71.13;95951.50;4913662;29;20458;-70
2023/09/18 11:08:43;;;;;;;10.77;3.40;;;;;;;20.15;71.65;95953.03;4910635;29;20322;-70
2023/09/18 11:11:12;;;;;;;9.13;4.10;;;;;;;20.20;71.89;95950.81;4913353;29;20458;-69
2023/09/18 11:13:46;;;;;;;6.80;2.77;;;;;;;20.04;72.08;95954.84;4910452;29;20482;-68
2023/09/18 11:16:27;;;;;;;8.50;2.73;;;;;;;20.01;71.88;95948.97;4892925;29;20488;-69
2023/09/18 11:19:17;;;;;;;6.60;2.47;;;;;;;19.99;70.40;95951.75;4903832;29;20438;-68
2023/09/18 11:21:43;;;;;;;6.57;3.40;;;;;;;19.90;71.04;95949.06;4904262;29;20445;-70
2023/09/18 11:24:18;;;;;;;11.37;2.87;;;;;;;19.84;71.70;95945.97;4912043;29;20427;-69
2023/09/18 11:26:47;;;;;;;14.23;3.97;;;;;;;19.89;71.13;95953.56;4909118;29;20194;-68